<?xml version="1.0" encoding="UTF-8" standalone="no" ?>
<gpx xmlns="http://www.topografix.com/GPX/1/1" xmlns:xsi="http://www.w3.org/2001/XMLSchema-instance" xsi:schemaLocation="http://www.topografix.com/GPX/1/1 http://www.topografix.com/GPX/1/1/gpx.xsd" version="1.1" creator="VisuGPX - https://www.visugpx.com">
  <metadata>
    <name>itinéraire 1</name>
    <desc><![CDATA[Pour se rendre à vélo sur le site du pique-nique du collectif Oxygène du 24 septembre. Itinéraire 1.]]></desc>
  </metadata>
  <trk>
    <name><![CDATA[OR-7877226--Montpellier:itineraire1]]></name>
    <trkseg>
      <trkpt lat="43.63955" lon="3.86468">
        <ele>71</ele>
        <time>2017-09-03T23:05:01Z</time>
      </trkpt>
      <trkpt lat="43.64114" lon="3.86339">
        <ele>80</ele>
        <time>2017-09-03T23:07:01Z</time>
      </trkpt>
      <trkpt lat="43.64132" lon="3.86223">
        <ele>80</ele>
        <time>2017-09-03T23:09:01Z</time>
      </trkpt>
      <trkpt lat="43.64331" lon="3.86069">
        <ele>66</ele>
        <time>2017-09-03T23:11:01Z</time>
      </trkpt>
      <trkpt lat="43.64384" lon="3.8606">
        <ele>66</ele>
        <time>2017-09-03T23:13:01Z</time>
      </trkpt>
      <trkpt lat="43.64508" lon="3.86193">
        <ele>63</ele>
        <time>2017-09-03T23:15:01Z</time>
      </trkpt>
      <trkpt lat="43.65052" lon="3.86592">
        <ele>47</ele>
        <time>2017-09-03T23:17:01Z</time>
      </trkpt>
      <trkpt lat="43.65123" lon="3.86558">
        <ele>48</ele>
        <time>2017-09-03T23:19:01Z</time>
      </trkpt>
      <trkpt lat="43.65166" lon="3.86369">
        <ele>50</ele>
        <time>2017-09-03T23:21:01Z</time>
      </trkpt>
      <trkpt lat="43.65213" lon="3.86159">
        <ele>49</ele>
        <time>2017-09-03T23:23:01Z</time>
      </trkpt>
      <trkpt lat="43.65294" lon="3.86107">
        <ele>51</ele>
        <time>2017-09-03T23:25:01Z</time>
      </trkpt>
      <trkpt lat="43.65306" lon="3.86034">
        <ele>51</ele>
        <time>2017-09-03T23:27:01Z</time>
      </trkpt>
      <trkpt lat="43.65294" lon="3.8588">
        <ele>49</ele>
        <time>2017-09-03T23:29:01Z</time>
      </trkpt>
      <trkpt lat="43.65375" lon="3.85657">
        <ele>51</ele>
        <time>2017-09-03T23:31:01Z</time>
      </trkpt>
      <trkpt lat="43.65502" lon="3.85554">
        <ele>55</ele>
        <time>2017-09-03T23:33:01Z</time>
      </trkpt>
      <trkpt lat="43.65642" lon="3.85249">
        <ele>56</ele>
        <time>2017-09-03T23:35:01Z</time>
      </trkpt>
      <trkpt lat="43.65784" lon="3.85129">
        <ele>56</ele>
        <time>2017-09-03T23:37:01Z</time>
      </trkpt>
      <trkpt lat="43.66095" lon="3.8479">
        <ele>60</ele>
        <time>2017-09-03T23:39:01Z</time>
      </trkpt>
      <trkpt lat="43.66219" lon="3.84717">
        <ele>62</ele>
        <time>2017-09-03T23:41:01Z</time>
      </trkpt>
      <trkpt lat="43.66436" lon="3.84498">
        <ele>66</ele>
        <time>2017-09-03T23:43:01Z</time>
      </trkpt>
      <trkpt lat="43.66287" lon="3.84219">
        <ele>64</ele>
        <time>2017-09-03T23:45:01Z</time>
      </trkpt>
      <trkpt lat="43.66318" lon="3.83987">
        <ele>70</ele>
        <time>2017-09-03T23:47:01Z</time>
      </trkpt>
      <trkpt lat="43.66145" lon="3.83888">
        <ele>69</ele>
        <time>2017-09-03T23:49:01Z</time>
      </trkpt>
      <trkpt lat="43.65946" lon="3.83781">
        <ele>70</ele>
        <time>2017-09-03T23:51:01Z</time>
      </trkpt>
      <trkpt lat="43.65791" lon="3.8376">
        <ele>75</ele>
        <time>2017-09-03T23:53:01Z</time>
      </trkpt>
      <trkpt lat="43.65611" lon="3.83708">
        <ele>84</ele>
        <time>2017-09-03T23:55:01Z</time>
      </trkpt>
    </trkseg>
  </trk>
</gpx>